createdAt,value
2016-12-19T17:23:04.535Z,20.61
2016-12-19T17:23:19.005Z,20.64
2016-12-19T17:23:33.481Z,20.63
2016-12-19T17:23:47.972Z,20.64
2016-12-19T17:24:02.437Z,20.64
2016-12-19T17:24:16.817Z,20.63
2016-12-19T17:24:31.131Z,20.61
2016-12-19T17:24:45.537Z,20.6
2016-12-19T17:24:59.884Z,20.57
2016-12-19T17:25:14.307Z,20.64
2016-12-19T17:25:28.646Z,20.63
2016-12-19T17:25:43.147Z,20.64
2016-12-19T17:25:57.471Z,20.67
2016-12-19T17:26:12.044Z,20.68
2016-12-19T17:26:27.322Z,20.66
2016-12-19T17:26:41.807Z,20.71
2016-12-19T17:26:56.538Z,20.86
2016-12-19T17:27:11.273Z,20.81
2016-12-19T17:27:25.751Z,20.82
2016-12-19T17:27:40.132Z,20.79
2016-12-19T17:27:54.632Z,20.81
2016-12-19T17:28:09.008Z,20.88
2016-12-19T17:28:23.397Z,20.97
2016-12-19T17:28:37.836Z,20.86
2016-12-19T17:28:52.236Z,20.97
2016-12-19T17:29:06.680Z,21.04
2016-12-19T17:29:21.117Z,21.09
2016-12-19T17:29:35.582Z,21.19
2016-12-19T17:29:49.929Z,21.12
2016-12-19T17:30:04.312Z,21.19
2016-12-19T17:30:18.650Z,21.33
2016-12-19T17:30:33.067Z,21.28
2016-12-19T17:30:47.530Z,21.23
2016-12-19T17:31:02.243Z,21.3
2016-12-19T17:31:16.919Z,21.3
2016-12-19T17:31:31.385Z,21.22
2016-12-19T17:31:45.840Z,21.25
2016-12-19T17:32:00.224Z,21.23
2016-12-19T17:32:14.741Z,21.23
2016-12-19T17:32:29.186Z,21.31
2016-12-19T17:32:43.645Z,21.22
2016-12-19T17:32:58.042Z,21.21
2016-12-19T17:33:12.467Z,21.28
2016-12-19T17:33:26.878Z,21.22
2016-12-19T17:33:41.292Z,21.22
2016-12-19T17:33:55.728Z,21.27
2016-12-19T17:34:10.176Z,21.3
2016-12-19T17:34:24.631Z,21.33
2016-12-19T17:34:39.248Z,21.33
2016-12-19T17:34:53.694Z,21.27
2016-12-19T17:35:08.131Z,21.36
2016-12-19T17:35:22.671Z,21.38
2016-12-19T17:35:37.204Z,21.27
2016-12-19T17:35:51.639Z,21.4
2016-12-19T17:36:06.037Z,21.31
2016-12-19T17:36:20.480Z,21.25
2016-12-19T17:36:35.117Z,21.38
2016-12-19T17:36:49.494Z,21.23
2016-12-19T17:37:04.129Z,21.4
2016-12-19T17:37:18.680Z,21.37
2016-12-19T17:37:33.085Z,21.38
2016-12-19T17:37:47.513Z,21.4
2016-12-19T17:38:02.172Z,21.37
2016-12-19T17:38:16.643Z,21.38
2016-12-19T17:38:31.051Z,21.38
2016-12-19T17:38:45.498Z,21.38
2016-12-19T17:39:00.056Z,21.48
2016-12-19T17:39:15.062Z,21.53
2016-12-19T17:39:30.197Z,21.46
2016-12-19T17:39:45.040Z,21.45
2016-12-19T17:39:59.984Z,21.48
2016-12-19T17:40:14.857Z,21.43
2016-12-19T17:40:30.560Z,21.49
2016-12-19T17:40:45.686Z,21.37
2016-12-19T17:41:00.194Z,21.4
2016-12-19T17:41:14.710Z,21.34
2016-12-19T17:41:29.188Z,21.33
2016-12-19T17:41:43.547Z,21.36
2016-12-19T17:41:57.969Z,21.38
2016-12-19T17:42:12.517Z,21.33
2016-12-19T17:42:27.118Z,21.25
2016-12-19T17:42:41.538Z,21.33
2016-12-19T17:42:56.012Z,21.27
2016-12-19T17:43:10.480Z,21.21
2016-12-19T17:43:24.934Z,21.18
2016-12-19T17:43:39.412Z,21.22
2016-12-19T17:43:53.843Z,21.21
2016-12-19T17:44:08.518Z,21.16
2016-12-19T17:44:23.110Z,21.16
2016-12-19T17:44:37.465Z,21.13
2016-12-19T17:44:51.914Z,21.12
2016-12-19T17:45:06.317Z,21.13
2016-12-19T17:45:20.764Z,21.12
2016-12-19T17:45:35.242Z,21.16
2016-12-19T17:45:49.651Z,21.16
2016-12-19T17:46:04.043Z,21.15
2016-12-19T17:46:18.481Z,21.22
2016-12-19T17:46:32.920Z,21.21
2016-12-19T17:46:47.278Z,21.12
2016-12-19T17:47:01.667Z,21.16
2016-12-19T17:47:16.164Z,21.21
2016-12-19T17:47:30.675Z,21.23
2016-12-19T17:47:45.071Z,21.27
2016-12-19T17:47:59.557Z,21.28
2016-12-19T17:48:13.975Z,21.31
2016-12-19T17:48:28.355Z,21.23
2016-12-19T17:48:42.892Z,21.27
2016-12-19T17:48:57.425Z,21.27
2016-12-19T17:49:11.839Z,21.31
2016-12-19T17:49:26.220Z,21.3
2016-12-19T17:49:40.622Z,21.3
2016-12-19T17:49:55.074Z,21.23
2016-12-19T17:50:09.474Z,21.33
2016-12-19T17:50:23.914Z,21.33
2016-12-19T17:50:38.277Z,21.25
2016-12-19T17:50:52.669Z,21.34
2016-12-19T17:51:07.054Z,21.43
2016-12-19T17:51:21.485Z,21.41
2016-12-19T17:51:35.962Z,21.41
2016-12-19T17:51:50.360Z,21.51
2016-12-19T17:52:04.768Z,21.55
2016-12-19T17:52:19.186Z,21.58
2016-12-19T17:52:33.595Z,21.61
2016-12-19T17:52:47.975Z,21.58
2016-12-19T17:53:02.425Z,21.56
2016-12-19T17:53:17.011Z,21.56
2016-12-19T17:53:31.433Z,21.56
2016-12-19T17:53:45.938Z,21.66
2016-12-19T17:54:00.371Z,21.58
2016-12-19T17:54:14.828Z,21.62
2016-12-19T17:54:29.234Z,21.58
2016-12-19T17:54:43.715Z,21.61
2016-12-19T17:54:58.078Z,21.61
2016-12-19T17:55:12.474Z,21.62
2016-12-19T17:55:26.913Z,21.62
2016-12-19T17:55:41.363Z,21.67
2016-12-19T17:55:55.774Z,21.62
2016-12-19T17:56:10.073Z,21.66
2016-12-19T17:56:24.753Z,21.66
2016-12-19T17:56:39.222Z,21.61
2016-12-19T17:56:53.634Z,21.73
2016-12-19T17:57:08.035Z,21.73
2016-12-19T17:57:22.430Z,21.73
2016-12-19T17:57:37.031Z,21.66
2016-12-19T17:57:51.395Z,21.74
2016-12-19T17:58:05.805Z,21.77
2016-12-19T17:58:20.333Z,21.77
2016-12-19T17:58:34.731Z,21.77
2016-12-19T17:58:49.132Z,21.74
2016-12-19T17:59:03.486Z,21.76
2016-12-19T17:59:17.911Z,21.74
2016-12-19T17:59:32.336Z,21.74
2016-12-19T17:59:46.951Z,21.73
2016-12-19T18:00:01.489Z,21.78
2016-12-19T18:00:15.857Z,21.77
2016-12-19T18:00:30.506Z,21.86
2016-12-19T18:00:44.949Z,21.85
2016-12-19T18:00:59.410Z,21.85
2016-12-19T18:01:13.783Z,21.86
2016-12-19T18:01:28.307Z,21.89
2016-12-19T18:01:42.856Z,21.94
2016-12-19T18:01:57.300Z,21.86
2016-12-19T18:02:11.684Z,21.85
2016-12-19T18:02:26.144Z,21.82
2016-12-19T18:02:40.520Z,21.9
2016-12-19T18:02:54.853Z,21.96
2016-12-19T18:03:09.410Z,21.94
2016-12-19T18:03:23.891Z,21.96
2016-12-19T18:03:38.325Z,21.97
2016-12-19T18:03:52.998Z,21.97
2016-12-19T18:04:07.426Z,22.07
2016-12-19T18:04:22.176Z,21.96
2016-12-19T18:04:36.789Z,22.05
2016-12-19T18:04:53.965Z,22.02
2016-12-19T18:05:09.845Z,21.94
2016-12-19T18:05:26.996Z,21.97
2016-12-19T18:05:43.349Z,21.99
2016-12-19T18:05:59.458Z,22.04
2016-12-19T18:06:15.375Z,21.96
2016-12-19T18:06:31.128Z,21.96
2016-12-19T18:06:46.850Z,22.07
2016-12-19T18:07:02.967Z,22
2016-12-19T18:07:18.648Z,22.04
2016-12-19T18:07:34.242Z,22
2016-12-19T18:07:49.836Z,22.05
2016-12-19T18:08:05.465Z,22.11
2016-12-19T18:08:21.033Z,22
2016-12-19T18:08:36.718Z,22.05
2016-12-19T18:08:52.118Z,22.05
2016-12-19T18:09:07.453Z,22.08
2016-12-19T18:09:22.406Z,22.04
2016-12-19T18:09:37.080Z,22.05
2016-12-19T18:09:51.869Z,22.07
2016-12-19T18:10:06.344Z,22.04
2016-12-19T18:10:20.850Z,21.96
2016-12-19T18:10:35.251Z,21.99
2016-12-19T18:10:49.792Z,22.07
2016-12-19T18:11:04.199Z,22
2016-12-19T18:11:18.579Z,22.07
2016-12-19T18:11:33.080Z,21.99
2016-12-19T18:11:47.536Z,22.08
2016-12-19T18:12:02.095Z,22.04
2016-12-19T18:12:16.500Z,22.02
2016-12-19T18:12:30.918Z,22.09
2016-12-19T18:12:45.350Z,22.04
2016-12-19T18:12:59.941Z,22.07
2016-12-19T18:13:14.372Z,22.11
2016-12-19T18:13:28.814Z,22.08
2016-12-19T18:13:43.274Z,21.97
2016-12-19T18:13:57.780Z,22.04
2016-12-19T18:14:12.214Z,21.97
2016-12-19T18:14:26.672Z,22
2016-12-19T18:14:41.188Z,22
2016-12-19T18:14:55.820Z,21.99
2016-12-19T18:15:10.293Z,21.89
2016-12-19T18:15:24.765Z,21.89
2016-12-19T18:15:39.225Z,21.89
2016-12-19T18:15:53.766Z,21.94
2016-12-19T18:16:08.220Z,21.74
2016-12-19T18:16:22.630Z,21.71
2016-12-19T18:16:37.223Z,21.77
2016-12-19T18:16:51.960Z,21.74
2016-12-19T18:17:06.578Z,21.68
2016-12-19T18:17:20.892Z,21.74
2016-12-19T18:17:35.428Z,21.62
2016-12-19T18:17:49.914Z,21.66
2016-12-19T18:18:04.473Z,21.61
2016-12-19T18:18:18.902Z,21.61
2016-12-19T18:18:33.504Z,21.58
2016-12-19T18:18:47.976Z,21.59
2016-12-19T18:19:02.481Z,21.52
2016-12-19T18:19:16.964Z,21.61
2016-12-19T18:19:31.427Z,21.46
2016-12-19T18:19:45.895Z,21.45
2016-12-19T18:20:00.317Z,21.52
2016-12-19T18:20:14.923Z,21.41
2016-12-19T18:20:29.405Z,21.51
2016-12-19T18:20:43.949Z,21.48
2016-12-19T18:20:58.394Z,21.48
2016-12-19T18:21:12.861Z,21.4
2016-12-19T18:21:27.310Z,21.53
2016-12-19T18:21:41.612Z,21.48
2016-12-19T18:21:56.073Z,21.51
2016-12-19T18:22:10.472Z,21.46
2016-12-19T18:22:25.093Z,21.48
2016-12-19T18:22:39.465Z,21.4
2016-12-19T18:22:53.931Z,21.43
2016-12-19T18:23:08.412Z,21.38
2016-12-19T18:23:22.967Z,21.51
2016-12-19T18:23:37.892Z,21.48
2016-12-19T18:23:52.426Z,21.46
2016-12-19T18:24:06.887Z,21.55
2016-12-19T18:24:21.326Z,21.48
2016-12-19T18:24:35.768Z,21.48
2016-12-19T18:24:50.217Z,21.52
2016-12-19T18:25:04.625Z,21.49
2016-12-19T18:25:19.083Z,21.46
2016-12-19T18:25:33.505Z,21.52
2016-12-19T18:25:48.089Z,21.53
2016-12-19T18:26:02.575Z,21.56
2016-12-19T18:26:17.130Z,21.58
2016-12-19T18:26:31.630Z,21.55
2016-12-19T18:26:46.090Z,21.52
2016-12-19T18:27:00.503Z,21.56
2016-12-19T18:27:14.856Z,21.49
2016-12-19T18:27:29.391Z,21.48
2016-12-19T18:27:43.773Z,21.41
2016-12-19T18:27:58.144Z,21.46
2016-12-19T18:28:12.659Z,21.48
2016-12-19T18:28:27.152Z,21.45
2016-12-19T18:28:41.488Z,21.45
2016-12-19T18:28:55.940Z,21.53
2016-12-19T18:29:10.404Z,21.48
2016-12-19T18:29:24.862Z,21.49
2016-12-19T18:29:39.323Z,21.51
2016-12-19T18:29:53.773Z,21.51
2016-12-19T18:30:08.380Z,21.48
2016-12-19T18:30:22.788Z,21.53
2016-12-19T18:30:37.234Z,21.52
2016-12-19T18:30:51.632Z,21.55
2016-12-19T18:31:06.020Z,21.51
2016-12-19T18:31:20.469Z,21.59
2016-12-19T18:31:35.044Z,21.55
2016-12-19T18:31:49.540Z,21.58
2016-12-19T18:32:04.019Z,21.58
2016-12-19T18:32:18.402Z,21.59
2016-12-19T18:32:32.860Z,21.56
2016-12-19T18:32:47.481Z,21.53
2016-12-19T18:33:01.802Z,21.56
2016-12-19T18:33:16.360Z,21.53
2016-12-19T18:33:30.981Z,21.58
2016-12-19T18:33:45.594Z,21.59
2016-12-19T18:34:00.028Z,21.56
2016-12-19T18:34:14.475Z,21.56
2016-12-19T18:34:28.980Z,21.55
2016-12-19T18:34:43.297Z,21.56
2016-12-19T18:34:57.750Z,21.49
2016-12-19T18:35:12.183Z,21.55
2016-12-19T18:35:26.637Z,21.55
2016-12-19T18:35:41.120Z,21.48
2016-12-19T18:35:55.532Z,21.49
2016-12-19T18:36:10.062Z,21.46
2016-12-19T18:36:24.521Z,21.51
2016-12-19T18:36:39.010Z,21.51
2016-12-19T18:36:53.416Z,21.45
2016-12-19T18:37:07.832Z,21.41
2016-12-19T18:37:22.283Z,21.37
2016-12-19T18:37:36.810Z,21.43
2016-12-19T18:37:51.315Z,21.37
2016-12-19T18:38:05.644Z,21.38
2016-12-19T18:38:20.156Z,21.38
2016-12-19T18:38:34.678Z,21.4
2016-12-19T18:38:49.340Z,21.36
2016-12-19T18:39:03.755Z,21.41
2016-12-19T18:39:18.344Z,21.41
2016-12-19T18:39:32.861Z,21.4
2016-12-19T18:39:47.289Z,21.36
2016-12-19T18:40:01.619Z,21.41
2016-12-19T18:40:16.104Z,21.36
2016-12-19T18:40:30.459Z,21.41
2016-12-19T18:40:44.892Z,21.4
2016-12-19T18:40:59.289Z,21.36
2016-12-19T18:41:13.681Z,21.38
2016-12-19T18:41:28.086Z,21.38
2016-12-19T18:41:42.635Z,21.36
2016-12-19T18:41:57.105Z,21.41
2016-12-19T18:42:11.570Z,21.43
2016-12-19T18:42:26.082Z,21.4
2016-12-19T18:42:40.592Z,21.41
2016-12-19T18:42:54.981Z,21.37
2016-12-19T18:43:09.585Z,21.4
2016-12-19T18:43:24.114Z,21.38
2016-12-19T18:43:38.626Z,21.34
2016-12-19T18:43:53.171Z,21.37
2016-12-19T18:44:07.724Z,21.4
2016-12-19T18:44:22.176Z,21.46
2016-12-19T18:44:36.570Z,21.48
2016-12-19T18:44:51.000Z,21.48
2016-12-19T18:45:05.380Z,21.45
2016-12-19T18:45:19.754Z,21.51
2016-12-19T18:45:34.188Z,21.53
2016-12-19T18:45:48.590Z,21.52
2016-12-19T18:46:03.015Z,21.46
2016-12-19T18:46:17.528Z,21.53
2016-12-19T18:46:32.061Z,21.52
2016-12-19T18:46:46.474Z,21.56
2016-12-19T18:47:00.893Z,21.56
2016-12-19T18:47:15.355Z,21.58
2016-12-19T18:47:29.856Z,21.55
2016-12-19T18:47:44.320Z,21.55
2016-12-19T18:47:58.752Z,21.64
2016-12-19T18:48:13.272Z,21.58
2016-12-19T18:48:27.669Z,21.59
2016-12-19T18:48:42.054Z,21.56
2016-12-19T18:48:56.409Z,21.49
2016-12-19T18:49:10.779Z,21.51
2016-12-19T18:49:25.217Z,21.46
2016-12-19T18:49:39.794Z,21.46
2016-12-19T18:49:54.206Z,21.41
2016-12-19T18:50:08.615Z,21.45
2016-12-19T18:50:23.048Z,21.51
2016-12-19T18:50:37.413Z,21.52
2016-12-19T18:50:51.803Z,21.49
2016-12-19T18:51:06.246Z,21.52
2016-12-19T18:51:20.727Z,21.52
2016-12-19T18:51:35.222Z,21.56
2016-12-19T18:51:49.752Z,21.53
2016-12-19T18:52:04.158Z,21.58
2016-12-19T18:52:18.520Z,21.61
2016-12-19T18:52:32.993Z,21.61
2016-12-19T18:52:47.811Z,21.51
2016-12-19T18:53:02.830Z,21.53
2016-12-19T18:53:18.091Z,21.61
2016-12-19T18:53:32.562Z,21.52
2016-12-19T18:53:46.935Z,21.59
2016-12-19T18:54:01.595Z,21.58
2016-12-19T18:54:16.030Z,21.59
2016-12-19T18:54:30.448Z,21.59
2016-12-19T18:54:45.032Z,21.62
2016-12-19T18:54:59.619Z,21.59
2016-12-19T18:55:14.294Z,21.59
2016-12-19T18:55:28.918Z,21.58
2016-12-19T18:55:43.525Z,21.64
2016-12-19T18:55:58.111Z,21.62
2016-12-19T18:56:12.572Z,21.61
2016-12-19T18:56:26.953Z,21.58
2016-12-19T18:56:41.413Z,21.55
2016-12-19T18:56:55.932Z,21.59
2016-12-19T18:57:10.413Z,21.53
2016-12-19T18:57:24.814Z,21.51
2016-12-19T18:57:39.277Z,21.55
2016-12-19T18:57:53.671Z,21.52
2016-12-19T18:58:08.137Z,21.59
2016-12-19T18:58:22.558Z,21.52
2016-12-19T18:58:36.980Z,21.53
2016-12-19T18:58:51.413Z,21.61
2016-12-19T18:59:05.908Z,21.52
2016-12-19T18:59:20.377Z,21.66
2016-12-19T18:59:34.775Z,21.61
2016-12-19T18:59:49.218Z,21.52
2016-12-19T19:00:03.589Z,21.66
2016-12-19T19:00:17.929Z,21.66
2016-12-19T19:00:32.336Z,21.7
2016-12-19T19:00:46.765Z,21.62
2016-12-19T19:01:01.109Z,21.68
2016-12-19T19:01:15.579Z,21.71
2016-12-19T19:01:29.940Z,21.77
2016-12-19T19:01:44.440Z,21.74
2016-12-19T19:01:59.029Z,21.73
2016-12-19T19:02:13.433Z,21.73
2016-12-19T19:02:27.893Z,21.76
2016-12-19T19:02:42.310Z,21.76
2016-12-19T19:02:56.758Z,21.7
2016-12-19T19:03:11.226Z,21.71
2016-12-19T19:03:25.595Z,21.76
2016-12-19T19:03:40.135Z,21.76
2016-12-19T19:03:54.547Z,21.73
2016-12-19T19:04:08.894Z,21.73
2016-12-19T19:04:23.229Z,21.73
2016-12-19T19:04:37.593Z,21.76
2016-12-19T19:04:52.103Z,21.74
2016-12-19T19:05:06.497Z,21.73
2016-12-19T19:05:21.069Z,21.71
2016-12-19T19:05:35.618Z,21.71
2016-12-19T19:05:50.207Z,21.78
2016-12-19T19:06:04.697Z,21.76
2016-12-19T19:06:19.109Z,21.73
2016-12-19T19:06:33.504Z,21.76
2016-12-19T19:06:48.005Z,21.77
2016-12-19T19:07:02.417Z,21.74
2016-12-19T19:07:16.810Z,21.76
2016-12-19T19:07:31.176Z,21.77
2016-12-19T19:07:45.612Z,21.73
2016-12-19T19:07:59.997Z,21.77
2016-12-19T19:08:14.456Z,21.73
2016-12-19T19:08:28.870Z,21.74
2016-12-19T19:08:43.267Z,21.71
2016-12-19T19:08:57.776Z,21.7
2016-12-19T19:09:12.305Z,21.78
2016-12-19T19:09:26.801Z,21.8
2016-12-19T19:09:41.344Z,21.73
2016-12-19T19:09:55.877Z,21.78
2016-12-19T19:10:10.295Z,21.77
2016-12-19T19:10:24.778Z,21.73
2016-12-19T19:10:39.204Z,21.73
2016-12-19T19:10:53.625Z,21.66
2016-12-19T19:11:07.993Z,21.67
2016-12-19T19:11:22.510Z,21.73
2016-12-19T19:11:36.900Z,21.64
2016-12-19T19:11:51.315Z,21.59
2016-12-19T19:12:05.925Z,21.64
2016-12-19T19:12:20.382Z,21.71
2016-12-19T19:12:34.857Z,21.61
2016-12-19T19:12:49.313Z,21.66
2016-12-19T19:13:03.693Z,21.61
2016-12-19T19:13:18.193Z,21.59
2016-12-19T19:13:32.644Z,21.62
2016-12-19T19:13:47.050Z,21.66
2016-12-19T19:14:01.419Z,21.61
2016-12-19T19:14:15.928Z,21.68
2016-12-19T19:14:30.578Z,21.67
2016-12-19T19:14:44.976Z,21.62
2016-12-19T19:14:59.407Z,21.59
2016-12-19T19:15:13.779Z,21.68
2016-12-19T19:15:28.253Z,21.64
2016-12-19T19:15:42.588Z,21.59
2016-12-19T19:15:57.110Z,21.58
2016-12-19T19:16:11.633Z,21.66
2016-12-19T19:16:26.126Z,21.56
2016-12-19T19:16:40.754Z,21.53
2016-12-19T19:16:55.183Z,21.59
2016-12-19T19:17:09.571Z,21.62
2016-12-19T19:17:24.024Z,21.62
2016-12-19T19:17:38.449Z,21.62
2016-12-19T19:17:52.824Z,21.62
2016-12-19T19:18:07.312Z,21.64
2016-12-19T19:18:21.782Z,21.64
2016-12-19T19:18:36.275Z,21.61
2016-12-19T19:18:50.797Z,21.62
2016-12-19T19:19:05.258Z,21.66
2016-12-19T19:19:19.924Z,21.66
2016-12-19T19:19:34.382Z,21.59
2016-12-19T19:19:48.827Z,21.59
2016-12-19T19:20:03.318Z,21.64
2016-12-19T19:20:17.759Z,21.61
2016-12-19T19:20:32.213Z,21.56
2016-12-19T19:20:46.729Z,21.62
2016-12-19T19:21:01.136Z,21.66
2016-12-19T19:21:15.684Z,21.64
2016-12-19T19:21:30.150Z,21.61
2016-12-19T19:21:44.530Z,21.64
2016-12-19T19:21:58.959Z,21.62
2016-12-19T19:22:13.343Z,21.67
2016-12-19T19:22:27.696Z,21.62
2016-12-19T19:22:42.152Z,21.68
2016-12-19T19:22:56.619Z,21.73
2016-12-19T19:23:11.091Z,21.66
2016-12-19T19:23:25.671Z,21.77
2016-12-19T19:23:40.238Z,21.76
2016-12-19T19:23:54.690Z,21.76
2016-12-19T19:24:09.442Z,21.73
2016-12-19T19:24:23.828Z,21.74
2016-12-19T19:24:38.239Z,21.73
2016-12-19T19:24:52.886Z,21.71
2016-12-19T19:25:07.249Z,21.71
2016-12-19T19:25:21.790Z,21.78
2016-12-19T19:25:36.388Z,21.89
2016-12-19T19:25:50.760Z,21.85
2016-12-19T19:26:05.245Z,21.82
2016-12-19T19:26:19.734Z,21.85
2016-12-19T19:26:34.299Z,21.8
2016-12-19T19:26:49.095Z,21.85
2016-12-19T19:27:03.548Z,21.86
2016-12-19T19:27:17.906Z,21.9
2016-12-19T19:27:32.504Z,21.9
2016-12-19T19:27:46.991Z,21.9
2016-12-19T19:28:01.428Z,21.9
2016-12-19T19:28:15.918Z,21.97
2016-12-19T19:28:30.408Z,21.85
2016-12-19T19:28:44.920Z,21.93
2016-12-19T19:28:59.527Z,21.89
2016-12-19T19:29:14.024Z,21.94
2016-12-19T19:29:28.400Z,21.97
2016-12-19T19:29:42.800Z,21.94
2016-12-19T19:29:57.292Z,21.96
2016-12-19T19:30:11.720Z,21.96
2016-12-19T19:30:26.299Z,22.02
2016-12-19T19:30:40.795Z,21.92
2016-12-19T19:30:55.333Z,22.02
2016-12-19T19:31:09.814Z,21.96
2016-12-19T19:31:24.382Z,22.02
2016-12-19T19:31:38.815Z,22.02
2016-12-19T19:31:53.283Z,21.99
2016-12-19T19:32:07.732Z,21.97
2016-12-19T19:32:22.111Z,22.02
2016-12-19T19:32:36.509Z,21.96
2016-12-19T19:32:50.937Z,21.96
2016-12-19T19:33:05.397Z,21.97
2016-12-19T19:33:19.938Z,22
2016-12-19T19:33:34.484Z,22.04
2016-12-19T19:33:49.090Z,21.97
2016-12-19T19:34:03.710Z,21.93
2016-12-19T19:34:18.201Z,21.99
2016-12-19T19:34:32.738Z,22.04
2016-12-19T19:34:47.345Z,22.05
2016-12-19T19:35:01.842Z,22.08
2016-12-19T19:35:16.379Z,21.99
2016-12-19T19:35:30.889Z,21.94
2016-12-19T19:35:45.408Z,22.04
2016-12-19T19:35:59.924Z,22.07
2016-12-19T19:36:14.439Z,21.96
2016-12-19T19:36:29.108Z,22.04
2016-12-19T19:36:43.594Z,21.96
2016-12-19T19:36:58.018Z,22
2016-12-19T19:37:12.481Z,22.07
2016-12-19T19:37:27.020Z,21.96
2016-12-19T19:37:41.657Z,22.07
2016-12-19T19:37:56.350Z,22.08
2016-12-19T19:38:10.892Z,22.05
2016-12-19T19:38:25.407Z,22.04
2016-12-19T19:38:39.988Z,21.94
2016-12-19T19:38:54.600Z,22
2016-12-19T19:39:09.140Z,21.97
2016-12-19T19:39:23.609Z,21.97
2016-12-19T19:39:38.026Z,21.96
2016-12-19T19:39:52.577Z,21.9
2016-12-19T19:40:07.194Z,21.93
2016-12-19T19:40:21.755Z,21.92
2016-12-19T19:40:36.169Z,21.97
2016-12-19T19:40:50.630Z,21.97
2016-12-19T19:41:05.219Z,21.85
2016-12-19T19:41:19.799Z,21.93
2016-12-19T19:41:34.452Z,21.9
2016-12-19T19:41:49.013Z,21.9
2016-12-19T19:42:03.545Z,21.86
2016-12-19T19:42:17.931Z,21.85
2016-12-19T19:42:32.433Z,21.93
2016-12-19T19:42:46.942Z,21.85
2016-12-19T19:43:01.633Z,21.83
2016-12-19T19:43:16.196Z,21.94
2016-12-19T19:43:30.616Z,21.8
2016-12-19T19:43:45.156Z,21.73
2016-12-19T19:43:59.526Z,21.73
2016-12-19T19:44:14.383Z,21.74
2016-12-19T19:44:28.907Z,21.76
2016-12-19T19:44:43.360Z,21.73
2016-12-19T19:44:57.984Z,21.7
2016-12-19T19:45:12.659Z,21.78
2016-12-19T19:45:27.161Z,21.73
2016-12-19T19:45:41.897Z,21.77
2016-12-19T19:45:56.461Z,21.82
2016-12-19T19:46:11.024Z,21.8
2016-12-19T19:46:25.594Z,21.8
2016-12-19T19:46:40.272Z,21.83
2016-12-19T19:46:54.955Z,21.82
2016-12-19T19:47:10.022Z,21.83
2016-12-19T19:47:24.507Z,21.86
2016-12-19T19:47:39.046Z,21.78
2016-12-19T19:47:53.570Z,21.89
2016-12-19T19:48:08.008Z,21.89
2016-12-19T19:48:22.512Z,21.94
2016-12-19T19:48:37.294Z,21.85
2016-12-19T19:48:51.892Z,21.82
2016-12-19T19:49:06.468Z,21.89
2016-12-19T19:49:21.065Z,21.89
2016-12-19T19:49:36.071Z,21.82
2016-12-19T19:49:50.871Z,21.83
2016-12-19T19:50:05.377Z,21.93
2016-12-19T19:50:19.913Z,21.77
2016-12-19T19:50:34.411Z,21.76
2016-12-19T19:50:49.017Z,21.89
2016-12-19T19:51:03.638Z,21.82
2016-12-19T19:51:18.169Z,21.77
2016-12-19T19:51:32.974Z,21.85
2016-12-19T19:51:47.699Z,21.86
2016-12-19T19:52:02.219Z,21.85
2016-12-19T19:52:16.877Z,21.86
2016-12-19T19:52:31.537Z,21.89
2016-12-19T19:52:45.987Z,21.86
2016-12-19T19:53:00.392Z,21.9
2016-12-19T19:53:15.064Z,21.86
2016-12-19T19:53:29.786Z,21.8
2016-12-19T19:53:44.469Z,21.85
2016-12-19T19:53:58.934Z,21.82
2016-12-19T19:54:13.403Z,21.73
2016-12-19T19:54:27.945Z,21.77
2016-12-19T19:54:42.537Z,21.71
2016-12-19T19:54:57.219Z,21.73
2016-12-19T19:55:11.800Z,21.76
2016-12-19T19:55:26.298Z,21.64
2016-12-19T19:55:40.814Z,21.61
2016-12-19T19:55:55.443Z,21.64
2016-12-19T19:56:10.155Z,21.56
2016-12-19T19:56:24.809Z,21.49
2016-12-19T19:56:39.333Z,21.45
2016-12-19T19:56:54.117Z,21.38
2016-12-19T19:57:08.584Z,21.37
2016-12-19T19:57:23.176Z,21.37
2016-12-19T19:57:37.719Z,21.37
2016-12-19T19:57:52.469Z,21.38
2016-12-19T19:58:06.979Z,21.34
2016-12-19T19:58:21.590Z,21.28
2016-12-19T19:58:36.072Z,21.25
2016-12-19T19:58:50.601Z,21.34
2016-12-19T19:59:05.147Z,21.27
2016-12-19T19:59:19.562Z,21.28
2016-12-19T19:59:34.034Z,21.34
2016-12-19T19:59:48.554Z,21.34
2016-12-19T20:00:03.179Z,21.21
2016-12-19T20:00:17.617Z,21.22
2016-12-19T20:00:32.131Z,21.3
2016-12-19T20:00:46.658Z,21.3
2016-12-19T20:01:01.225Z,21.23
2016-12-19T20:01:15.868Z,21.18
2016-12-19T20:01:30.452Z,21.22
2016-12-19T20:01:44.998Z,21.15
2016-12-19T20:01:59.457Z,21.15
2016-12-19T20:02:13.973Z,21.06
2016-12-19T20:02:28.553Z,20.97
2016-12-19T20:02:43.099Z,21.03
2016-12-19T20:02:57.630Z,20.93
2016-12-19T20:03:12.325Z,20.94
2016-12-19T20:03:26.829Z,20.94
2016-12-19T20:03:41.269Z,20.9
2016-12-19T20:03:55.933Z,20.9
2016-12-19T20:04:10.423Z,20.9
2016-12-19T20:04:24.954Z,20.82
2016-12-19T20:04:39.451Z,20.82
2016-12-19T20:04:53.883Z,20.91
2016-12-19T20:05:08.346Z,20.85
2016-12-19T20:05:22.878Z,20.85
2016-12-19T20:05:37.365Z,20.9
2016-12-19T20:05:51.831Z,20.9
2016-12-19T20:06:06.296Z,20.9
2016-12-19T20:06:20.765Z,20.91
2016-12-19T20:06:35.185Z,20.93
2016-12-19T20:06:49.591Z,20.91
2016-12-19T20:07:04.089Z,20.82
2016-12-19T20:07:18.832Z,20.93
2016-12-19T20:07:34.238Z,20.96
2016-12-19T20:07:48.715Z,20.85
2016-12-19T20:08:03.105Z,20.86
2016-12-19T20:08:17.568Z,20.93
2016-12-19T20:08:32.128Z,20.91
2016-12-19T20:08:46.710Z,20.88
2016-12-19T20:09:01.296Z,20.91
2016-12-19T20:09:16.000Z,20.96
2016-12-19T20:09:30.651Z,20.97
2016-12-19T20:09:45.047Z,20.9
2016-12-19T20:09:59.610Z,20.96
2016-12-19T20:10:14.180Z,20.91
2016-12-19T20:10:28.834Z,20.93
2016-12-19T20:10:43.342Z,20.94
2016-12-19T20:10:57.877Z,20.88
2016-12-19T20:11:12.521Z,20.88
2016-12-19T20:11:27.046Z,20.85
2016-12-19T20:11:41.634Z,20.85
2016-12-19T20:11:56.246Z,20.78
2016-12-19T20:12:10.680Z,20.78
2016-12-19T20:12:25.225Z,20.81
2016-12-19T20:12:39.768Z,20.79
2016-12-19T20:12:54.332Z,20.9
2016-12-19T20:13:08.949Z,20.79
2016-12-19T20:13:23.565Z,20.83
2016-12-19T20:13:38.128Z,20.88
2016-12-19T20:13:52.680Z,20.86
2016-12-19T20:14:07.326Z,20.82
2016-12-19T20:14:21.831Z,20.81
2016-12-19T20:14:36.426Z,20.85
2016-12-19T20:14:50.949Z,20.86
2016-12-19T20:15:05.446Z,20.82
2016-12-19T20:15:19.954Z,20.85
2016-12-19T20:15:34.536Z,20.82
2016-12-19T20:15:49.117Z,20.81
2016-12-19T20:16:03.918Z,20.82
2016-12-19T20:16:18.716Z,20.81
2016-12-19T20:16:33.361Z,20.83
2016-12-19T20:16:47.910Z,20.79
2016-12-19T20:17:02.702Z,20.82
2016-12-19T20:17:17.558Z,20.81
2016-12-19T20:17:32.022Z,20.76
2016-12-19T20:17:46.583Z,20.71
2016-12-19T20:18:01.056Z,20.78
2016-12-19T20:18:15.533Z,20.85
2016-12-19T20:18:29.960Z,20.78
2016-12-19T20:18:44.485Z,20.75
2016-12-19T20:18:59.043Z,20.74
2016-12-19T20:19:13.632Z,20.72
2016-12-19T20:19:28.131Z,20.68
2016-12-19T20:19:42.847Z,20.72
2016-12-19T20:19:57.414Z,20.67
2016-12-19T20:20:12.059Z,20.61
2016-12-19T20:20:26.481Z,20.72
2016-12-19T20:20:40.969Z,20.71
2016-12-19T20:20:55.625Z,20.67
2016-12-19T20:21:10.228Z,20.58
2016-12-19T20:21:24.819Z,20.68
2016-12-19T20:21:39.370Z,20.58
2016-12-19T20:21:53.866Z,20.66
2016-12-19T20:22:08.521Z,20.81
2016-12-19T20:22:23.101Z,20.66
2016-12-19T20:22:37.559Z,20.68
2016-12-19T20:22:52.235Z,20.72
2016-12-19T20:23:06.860Z,20.61
2016-12-19T20:23:21.478Z,20.61
2016-12-19T20:23:36.039Z,20.71
2016-12-19T20:23:50.555Z,20.66
2016-12-19T20:24:05.268Z,20.61
2016-12-19T20:24:19.957Z,20.72
2016-12-19T20:24:34.779Z,20.68
2016-12-19T20:24:49.600Z,20.76
2016-12-19T20:25:04.205Z,20.72
2016-12-19T20:25:18.883Z,20.81
2016-12-19T20:25:33.596Z,20.79
2016-12-19T20:25:48.171Z,20.74
2016-12-19T20:26:02.817Z,20.76
2016-12-19T20:26:17.257Z,20.74
2016-12-19T20:26:31.710Z,20.86
2016-12-19T20:26:46.335Z,20.74
2016-12-19T20:27:00.944Z,20.82
2016-12-19T20:27:15.626Z,20.79
2016-12-19T20:27:30.252Z,20.79
2016-12-19T20:27:44.803Z,20.81
2016-12-19T20:27:59.410Z,20.79
2016-12-19T20:28:14.052Z,20.78
2016-12-19T20:28:28.596Z,20.82
2016-12-19T20:28:43.075Z,20.76
2016-12-19T20:28:57.669Z,20.83
2016-12-19T20:29:12.212Z,20.83
2016-12-19T20:29:26.610Z,20.81
2016-12-19T20:29:41.051Z,20.83
2016-12-19T20:29:55.704Z,20.76
2016-12-19T20:30:10.205Z,20.76
2016-12-19T20:30:24.678Z,20.86
2016-12-19T20:30:39.253Z,20.81
2016-12-19T20:30:53.747Z,20.81